OAL063 UHPP-UHPT
Flight info
| Callsign | OAL063 |
|---|---|
| Flight time | 2h 49m |
| Altitude | 15000 |
| Route | TUPAN GEFAR KOKUN USTKAMCHATSK OSBAT GIROD TEBMI LAPOD TILICHIKI |
| Aircraft | C208/L-SDFGR/C |
Departure
| Time | 2026-05-05 16:23 |
|---|---|
| Airport | Yelizovo Airport (UHPP) |
Arrival
| Time | 2026-05-05 19:13 |
|---|---|
| Airport | Tilichiki Airport (UHPT) |
| Time | Latitude | Longitude | Altitude | Speed | Heading |
|---|---|---|---|---|---|
| 2026-05-05 15:25 | 53.16981 | 158.42849 | 122 ft | 0 kts | 286° |
| 2026-05-05 16:15 | 53.16983 | 158.42843 | 122 ft | 3 kts | 291° |
| 2026-05-05 16:16 | 53.17072 | 158.42931 | 122 ft | 15 kts | 57° |
| 2026-05-05 16:16 | 53.17182 | 158.43246 | 122 ft | 23 kts | 59° |
| 2026-05-05 16:17 | 53.17348 | 158.43716 | 120 ft | 26 kts | 59° |
| 2026-05-05 16:17 | 53.17437 | 158.43965 | 121 ft | 25 kts | 63° |
| 2026-05-05 16:18 | 53.17508 | 158.44229 | 121 ft | 4 kts | 62° |
| 2026-05-05 16:18 | 53.17519 | 158.44307 | 120 ft | 10 kts | 97° |
| 2026-05-05 16:18 | 53.17341 | 158.44479 | 120 ft | 21 kts | 157° |
| 2026-05-05 16:19 | 53.17195 | 158.44578 | 120 ft | 25 kts | 157° |
| 2026-05-05 16:19 | 53.17032 | 158.44690 | 120 ft | 25 kts | 157° |
| 2026-05-05 16:19 | 53.16723 | 158.44904 | 122 ft | 23 kts | 161° |
| 2026-05-05 16:20 | 53.16503 | 158.45057 | 120 ft | 20 kts | 158° |
| 2026-05-05 16:20 | 53.16198 | 158.45270 | 120 ft | 25 kts | 158° |
| 2026-05-05 16:21 | 53.16072 | 158.45467 | 123 ft | 0 kts | 71° |
| 2026-05-05 16:22 | 53.16091 | 158.45542 | 124 ft | 9 kts | 65° |
| 2026-05-05 16:22 | 53.16303 | 158.45504 | 123 ft | 45 kts | 336° |
| 2026-05-05 16:23 | 53.17332 | 158.44777 | 374 ft | 93 kts | 338° |
| 2026-05-05 16:23 | 53.17981 | 158.44713 | 522 ft | 105 kts | 31° |
| 2026-05-05 16:23 | 53.18715 | 158.46600 | 1102 ft | 95 kts | 55° |
| 2026-05-05 16:24 | 53.19162 | 158.47676 | 1002 ft | 130 kts | 58° |
| 2026-05-05 16:24 | 53.19662 | 158.48943 | 1205 ft | 133 kts | 46° |
| 2026-05-05 16:24 | 53.21274 | 158.50516 | 1666 ft | 136 kts | 38° |
| 2026-05-05 16:25 | 53.22038 | 158.51455 | 1867 ft | 137 kts | 37° |
| 2026-05-05 16:25 | 53.23587 | 158.53390 | 2278 ft | 141 kts | 38° |
| 2026-05-05 16:25 | 53.24381 | 158.54358 | 2479 ft | 141 kts | 37° |
| 2026-05-05 16:26 | 53.25945 | 158.56321 | 2876 ft | 142 kts | 39° |
| 2026-05-05 16:26 | 53.27549 | 158.58331 | 3288 ft | 145 kts | 38° |
| 2026-05-05 16:27 | 53.28345 | 158.59328 | 3583 ft | 138 kts | 37° |
| 2026-05-05 16:27 | 53.29065 | 158.60229 | 4064 ft | 121 kts | 37° |
| 2026-05-05 16:27 | 53.29699 | 158.61018 | 4529 ft | 107 kts | 37° |
| 2026-05-05 16:27 | 53.30255 | 158.61712 | 4980 ft | 93 kts | 38° |
| 2026-05-05 16:28 | 53.30741 | 158.62312 | 5337 ft | 85 kts | 39° |
| 2026-05-05 16:28 | 53.31209 | 158.62905 | 5665 ft | 81 kts | 36° |
| 2026-05-05 16:28 | 53.31672 | 158.63460 | 5895 ft | 83 kts | 37° |
| 2026-05-05 16:28 | 53.32141 | 158.64042 | 6140 ft | 86 kts | 37° |
| 2026-05-05 16:29 | 53.32616 | 158.64643 | 6393 ft | 86 kts | 38° |
| 2026-05-05 16:29 | 53.33095 | 158.65252 | 6650 ft | 87 kts | 38° |
| 2026-05-05 16:29 | 53.33586 | 158.65883 | 6917 ft | 88 kts | 37° |
| 2026-05-05 16:29 | 53.34101 | 158.66518 | 7177 ft | 94 kts | 39° |
| 2026-05-05 16:30 | 53.34646 | 158.67206 | 7443 ft | 98 kts | 37° |
| 2026-05-05 16:30 | 53.35194 | 158.67903 | 7699 ft | 101 kts | 39° |
| 2026-05-05 16:30 | 53.35764 | 158.68626 | 7912 ft | 104 kts | 37° |
| 2026-05-05 16:30 | 53.36360 | 158.69360 | 8128 ft | 110 kts | 39° |
| 2026-05-05 16:31 | 53.36980 | 158.70160 | 8361 ft | 116 kts | 39° |
| 2026-05-05 16:31 | 53.37652 | 158.71002 | 8535 ft | 127 kts | 39° |
| 2026-05-05 16:31 | 53.38384 | 158.71941 | 8702 ft | 140 kts | 38° |
| 2026-05-05 16:31 | 53.39192 | 158.72954 | 8866 ft | 149 kts | 38° |
| 2026-05-05 16:32 | 53.40053 | 158.74034 | 9025 ft | 155 kts | 39° |
| 2026-05-05 16:32 | 53.40922 | 158.75135 | 9162 ft | 157 kts | 39° |
| 2026-05-05 16:32 | 53.41818 | 158.76262 | 9302 ft | 164 kts | 39° |
| 2026-05-05 16:32 | 53.42724 | 158.77397 | 9433 ft | 163 kts | 39° |
| 2026-05-05 16:33 | 53.43641 | 158.78548 | 9562 ft | 168 kts | 39° |
| 2026-05-05 16:33 | 53.44573 | 158.79721 | 9691 ft | 169 kts | 39° |
| 2026-05-05 16:33 | 53.45487 | 158.80877 | 9814 ft | 163 kts | 39° |
| 2026-05-05 16:33 | 53.46375 | 158.82012 | 9927 ft | 159 kts | 40° |
| 2026-05-05 16:34 | 53.47253 | 158.83131 | 10049 ft | 158 kts | 39° |
| 2026-05-05 16:34 | 53.48125 | 158.84235 | 10168 ft | 157 kts | 39° |
| 2026-05-05 16:34 | 53.48995 | 158.85329 | 10289 ft | 155 kts | 40° |
| 2026-05-05 16:34 | 53.49870 | 158.86441 | 10414 ft | 158 kts | 40° |
| 2026-05-05 16:35 | 53.50747 | 158.87563 | 10537 ft | 158 kts | 39° |
| 2026-05-05 16:35 | 53.51627 | 158.88677 | 10658 ft | 158 kts | 40° |
| 2026-05-05 16:35 | 53.52502 | 158.89792 | 10782 ft | 158 kts | 40° |
| 2026-05-05 16:35 | 53.53378 | 158.90915 | 10909 ft | 160 kts | 40° |
| 2026-05-05 16:36 | 53.54259 | 158.92034 | 11034 ft | 160 kts | 40° |
| 2026-05-05 16:36 | 53.55132 | 158.93134 | 11153 ft | 155 kts | 40° |
| 2026-05-05 16:36 | 53.55986 | 158.94225 | 11271 ft | 153 kts | 40° |
| 2026-05-05 16:36 | 53.56825 | 158.95297 | 11391 ft | 154 kts | 40° |
| 2026-05-05 16:37 | 53.57686 | 158.96389 | 11514 ft | 157 kts | 40° |
| 2026-05-05 16:37 | 53.58565 | 158.97515 | 11642 ft | 159 kts | 40° |
| 2026-05-05 16:37 | 53.59443 | 158.98635 | 11765 ft | 159 kts | 41° |
| 2026-05-05 16:37 | 53.60318 | 158.99751 | 11887 ft | 158 kts | 40° |
| 2026-05-05 16:38 | 53.61187 | 159.00853 | 12013 ft | 156 kts | 41° |
| 2026-05-05 16:38 | 53.62045 | 159.01941 | 12130 ft | 153 kts | 41° |
| 2026-05-05 16:38 | 53.62898 | 159.03033 | 12246 ft | 156 kts | 41° |
| 2026-05-05 16:38 | 53.63746 | 159.04141 | 12376 ft | 155 kts | 41° |
| 2026-05-05 16:39 | 53.64608 | 159.05251 | 12504 ft | 156 kts | 41° |
| 2026-05-05 16:39 | 53.65477 | 159.06379 | 12629 ft | 157 kts | 41° |
| 2026-05-05 16:39 | 53.66347 | 159.07512 | 12750 ft | 156 kts | 42° |
| 2026-05-05 16:39 | 53.67207 | 159.08628 | 12872 ft | 155 kts | 41° |
| 2026-05-05 16:40 | 53.68058 | 159.09724 | 12991 ft | 154 kts | 41° |
| 2026-05-05 16:40 | 53.68902 | 159.10848 | 13111 ft | 154 kts | 43° |
| 2026-05-05 16:40 | 53.69747 | 159.11963 | 13239 ft | 157 kts | 42° |
| 2026-05-05 16:40 | 53.70608 | 159.13084 | 13358 ft | 154 kts | 41° |
| 2026-05-05 16:41 | 53.71440 | 159.14157 | 13473 ft | 150 kts | 42° |
| 2026-05-05 16:41 | 53.72270 | 159.15239 | 13595 ft | 151 kts | 42° |
| 2026-05-05 16:41 | 53.73085 | 159.16310 | 13710 ft | 150 kts | 41° |
| 2026-05-05 16:41 | 53.73908 | 159.17382 | 13832 ft | 149 kts | 41° |
| 2026-05-05 16:42 | 53.74731 | 159.18454 | 13953 ft | 149 kts | 42° |
| 2026-05-05 16:42 | 53.75554 | 159.19539 | 14072 ft | 150 kts | 42° |
| 2026-05-05 16:42 | 53.76383 | 159.20621 | 14201 ft | 152 kts | 42° |
| 2026-05-05 16:42 | 53.77220 | 159.21719 | 14325 ft | 153 kts | 41° |
| 2026-05-05 16:43 | 53.78061 | 159.22826 | 14451 ft | 153 kts | 41° |
| 2026-05-05 16:43 | 53.78902 | 159.23932 | 14575 ft | 153 kts | 41° |
| 2026-05-05 16:43 | 53.79752 | 159.25047 | 14701 ft | 155 kts | 42° |
| 2026-05-05 16:43 | 53.80603 | 159.26166 | 14826 ft | 155 kts | 42° |
| 2026-05-05 16:44 | 53.81457 | 159.27289 | 14952 ft | 155 kts | 41° |
| 2026-05-05 16:44 | 53.82321 | 159.28430 | 15006 ft | 161 kts | 41° |
| 2026-05-05 16:44 | 53.83224 | 159.29623 | 15017 ft | 168 kts | 41° |
| 2026-05-05 16:44 | 53.84159 | 159.30852 | 15022 ft | 172 kts | 41° |
| 2026-05-05 16:45 | 53.85113 | 159.32107 | 15019 ft | 176 kts | 41° |
| 2026-05-05 16:45 | 53.86080 | 159.33389 | 15018 ft | 176 kts | 41° |
| 2026-05-05 16:45 | 53.87058 | 159.34683 | 15017 ft | 178 kts | 41° |
| 2026-05-05 16:45 | 53.88046 | 159.35985 | 15016 ft | 182 kts | 41° |
| 2026-05-05 16:46 | 53.89046 | 159.37297 | 15018 ft | 182 kts | 41° |
| 2026-05-05 16:46 | 53.90049 | 159.38625 | 15016 ft | 183 kts | 41° |
| 2026-05-05 16:46 | 53.91057 | 159.39959 | 15018 ft | 184 kts | 41° |
| 2026-05-05 16:46 | 53.92068 | 159.41300 | 15020 ft | 184 kts | 41° |
| 2026-05-05 16:47 | 53.93095 | 159.42658 | 15017 ft | 189 kts | 41° |
| 2026-05-05 16:47 | 53.94120 | 159.44015 | 15018 ft | 185 kts | 41° |
| 2026-05-05 16:47 | 53.95130 | 159.45354 | 15014 ft | 184 kts | 41° |
| 2026-05-05 16:47 | 53.96130 | 159.46677 | 15010 ft | 185 kts | 41° |
| 2026-05-05 16:48 | 53.97135 | 159.48020 | 15011 ft | 182 kts | 41° |
| 2026-05-05 16:48 | 53.98124 | 159.49346 | 15011 ft | 181 kts | 41° |
| 2026-05-05 16:48 | 53.99115 | 159.50659 | 15012 ft | 181 kts | 41° |
| 2026-05-05 16:48 | 54.00110 | 159.51977 | 15010 ft | 182 kts | 41° |
| 2026-05-05 16:49 | 54.01108 | 159.53302 | 15010 ft | 182 kts | 41° |
| 2026-05-05 16:49 | 54.02107 | 159.54634 | 15011 ft | 183 kts | 41° |
| 2026-05-05 16:49 | 54.03113 | 159.55973 | 15011 ft | 184 kts | 41° |
| 2026-05-05 16:49 | 54.04120 | 159.57316 | 15010 ft | 184 kts | 41° |
| 2026-05-05 16:50 | 54.05129 | 159.58664 | 15012 ft | 185 kts | 41° |
| 2026-05-05 16:50 | 54.06140 | 159.60015 | 15013 ft | 185 kts | 41° |
| 2026-05-05 16:50 | 54.07159 | 159.61373 | 15014 ft | 186 kts | 41° |
| 2026-05-05 16:50 | 54.08179 | 159.62739 | 15015 ft | 187 kts | 41° |
| 2026-05-05 16:51 | 54.09202 | 159.64107 | 15016 ft | 188 kts | 41° |
| 2026-05-05 16:51 | 54.10231 | 159.65486 | 15017 ft | 188 kts | 41° |
| 2026-05-05 16:51 | 54.11264 | 159.66870 | 15019 ft | 190 kts | 41° |
| 2026-05-05 16:51 | 54.12309 | 159.68272 | 15022 ft | 192 kts | 41° |
| 2026-05-05 16:52 | 54.13364 | 159.69685 | 15025 ft | 193 kts | 41° |
| 2026-05-05 16:52 | 54.14421 | 159.71108 | 15025 ft | 194 kts | 41° |
| 2026-05-05 16:52 | 54.15482 | 159.72533 | 15027 ft | 195 kts | 41° |
| 2026-05-05 16:52 | 54.16547 | 159.73953 | 15026 ft | 194 kts | 41° |
| 2026-05-05 16:53 | 54.17606 | 159.75375 | 15027 ft | 194 kts | 41° |
| 2026-05-05 16:53 | 54.18677 | 159.76803 | 15033 ft | 197 kts | 41° |
| 2026-05-05 16:53 | 54.19754 | 159.78271 | 15035 ft | 198 kts | 41° |
| 2026-05-05 16:53 | 54.20840 | 159.79741 | 15037 ft | 199 kts | 41° |
| 2026-05-05 16:54 | 54.21923 | 159.81193 | 15035 ft | 198 kts | 41° |
| 2026-05-05 16:54 | 54.23024 | 159.82661 | 15040 ft | 201 kts | 41° |
| 2026-05-05 16:54 | 54.24130 | 159.84149 | 15036 ft | 205 kts | 41° |
| 2026-05-05 16:54 | 54.25244 | 159.85652 | 15038 ft | 203 kts | 41° |
| 2026-05-05 16:55 | 54.26354 | 159.87138 | 15035 ft | 203 kts | 41° |
| 2026-05-05 16:55 | 54.27462 | 159.88636 | 15035 ft | 203 kts | 41° |
| 2026-05-05 16:55 | 54.28572 | 159.90135 | 15032 ft | 203 kts | 41° |
| 2026-05-05 16:55 | 54.29667 | 159.91611 | 15030 ft | 203 kts | 41° |
| 2026-05-05 16:56 | 54.30773 | 159.93105 | 15032 ft | 202 kts | 41° |
| 2026-05-05 16:56 | 54.31879 | 159.94596 | 15033 ft | 203 kts | 41° |
| 2026-05-05 16:56 | 54.32987 | 159.96092 | 15034 ft | 203 kts | 41° |
| 2026-05-05 16:56 | 54.34097 | 159.97594 | 15034 ft | 203 kts | 41° |
| 2026-05-05 16:57 | 54.35209 | 159.99092 | 15036 ft | 204 kts | 41° |
| 2026-05-05 16:57 | 54.36329 | 160.00608 | 15036 ft | 205 kts | 41° |
| 2026-05-05 16:57 | 54.37444 | 160.02129 | 15034 ft | 204 kts | 42° |
| 2026-05-05 16:57 | 54.38555 | 160.03636 | 15031 ft | 203 kts | 41° |
| 2026-05-05 16:58 | 54.39673 | 160.05149 | 15036 ft | 206 kts | 41° |
| 2026-05-05 16:58 | 54.40802 | 160.06675 | 15041 ft | 207 kts | 41° |
| 2026-05-05 16:58 | 54.41916 | 160.08201 | 15047 ft | 205 kts | 41° |
| 2026-05-05 16:58 | 54.43031 | 160.09708 | 15044 ft | 204 kts | 41° |
| 2026-05-05 16:59 | 54.44142 | 160.11231 | 15038 ft | 204 kts | 42° |
| 2026-05-05 16:59 | 54.45256 | 160.12754 | 15045 ft | 205 kts | 41° |
| 2026-05-05 16:59 | 54.46374 | 160.14272 | 15037 ft | 205 kts | 41° |
| 2026-05-05 16:59 | 54.47492 | 160.15795 | 15044 ft | 205 kts | 41° |
| 2026-05-05 17:00 | 54.48612 | 160.17324 | 15043 ft | 206 kts | 41° |
| 2026-05-05 17:00 | 54.49734 | 160.18856 | 15043 ft | 206 kts | 41° |
| 2026-05-05 17:00 | 54.50856 | 160.20388 | 15043 ft | 206 kts | 41° |
| 2026-05-05 17:00 | 54.51979 | 160.21925 | 15046 ft | 206 kts | 42° |
| 2026-05-05 17:01 | 54.53106 | 160.23466 | 15053 ft | 207 kts | 41° |
| 2026-05-05 17:01 | 54.54237 | 160.25015 | 15048 ft | 208 kts | 41° |
| 2026-05-05 17:01 | 54.55371 | 160.26562 | 15057 ft | 208 kts | 41° |
| 2026-05-05 17:01 | 54.56501 | 160.28116 | 15053 ft | 208 kts | 42° |
| 2026-05-05 17:02 | 54.57635 | 160.29678 | 15056 ft | 209 kts | 42° |
| 2026-05-05 17:02 | 54.58773 | 160.31240 | 15060 ft | 209 kts | 42° |
| 2026-05-05 17:02 | 54.59913 | 160.32804 | 15056 ft | 209 kts | 42° |
| 2026-05-05 17:02 | 54.61031 | 160.34346 | 15054 ft | 209 kts | 42° |
| 2026-05-05 17:03 | 54.62166 | 160.35912 | 15053 ft | 209 kts | 42° |
| 2026-05-05 17:03 | 54.63300 | 160.37475 | 15048 ft | 209 kts | 42° |
| 2026-05-05 17:03 | 54.64434 | 160.39035 | 15047 ft | 208 kts | 42° |
| 2026-05-05 17:03 | 54.65565 | 160.40597 | 15050 ft | 209 kts | 42° |
| 2026-05-05 17:04 | 54.66696 | 160.42160 | 15060 ft | 208 kts | 42° |
| 2026-05-05 17:04 | 54.67828 | 160.43724 | 15062 ft | 208 kts | 42° |
| 2026-05-05 17:04 | 54.68961 | 160.45292 | 15058 ft | 209 kts | 42° |
| 2026-05-05 17:04 | 54.70101 | 160.46867 | 15064 ft | 210 kts | 42° |
| 2026-05-05 17:05 | 54.71244 | 160.48449 | 15064 ft | 211 kts | 42° |
| 2026-05-05 17:05 | 54.72390 | 160.50037 | 15067 ft | 211 kts | 43° |
| 2026-05-05 17:05 | 54.73538 | 160.51631 | 15065 ft | 211 kts | 43° |
| 2026-05-05 17:05 | 54.74689 | 160.53228 | 15070 ft | 213 kts | 42° |
| 2026-05-05 17:06 | 54.75850 | 160.54832 | 15067 ft | 213 kts | 42° |
| 2026-05-05 17:06 | 54.76998 | 160.56425 | 15067 ft | 211 kts | 43° |
| 2026-05-05 17:06 | 54.78138 | 160.58021 | 15067 ft | 211 kts | 43° |
| 2026-05-05 17:06 | 54.79278 | 160.59613 | 15065 ft | 210 kts | 43° |
| 2026-05-05 17:07 | 54.80033 | 160.60665 | 15066 ft | 210 kts | 43° |
| 2026-05-05 17:07 | 54.81172 | 160.62253 | 15066 ft | 210 kts | 43° |
| 2026-05-05 17:07 | 54.82314 | 160.63844 | 15066 ft | 211 kts | 43° |
| 2026-05-05 17:07 | 54.83458 | 160.65439 | 15066 ft | 211 kts | 43° |
| 2026-05-05 17:08 | 54.84602 | 160.67039 | 15065 ft | 211 kts | 43° |
| 2026-05-05 17:08 | 54.86118 | 160.69159 | 15066 ft | 211 kts | 43° |
| 2026-05-05 17:08 | 54.86893 | 160.70244 | 15065 ft | 211 kts | 43° |
| 2026-05-05 17:08 | 54.88035 | 160.71841 | 15078 ft | 211 kts | 43° |
| 2026-05-05 17:09 | 54.89174 | 160.73440 | 15091 ft | 210 kts | 43° |
| 2026-05-05 17:09 | 54.90307 | 160.75032 | 15098 ft | 209 kts | 43° |
| 2026-05-05 17:09 | 54.91444 | 160.76629 | 15099 ft | 210 kts | 43° |
| 2026-05-05 17:09 | 54.92582 | 160.78227 | 15098 ft | 210 kts | 43° |
| 2026-05-05 17:10 | 54.93717 | 160.79823 | 15109 ft | 210 kts | 43° |
| 2026-05-05 17:10 | 54.94854 | 160.81421 | 15108 ft | 211 kts | 43° |
| 2026-05-05 17:10 | 54.95993 | 160.83023 | 15107 ft | 211 kts | 43° |
| 2026-05-05 17:10 | 54.97134 | 160.84631 | 15109 ft | 211 kts | 43° |
| 2026-05-05 17:11 | 54.98261 | 160.86217 | 15108 ft | 211 kts | 43° |
| 2026-05-05 17:11 | 54.99400 | 160.87826 | 15108 ft | 211 kts | 44° |
| 2026-05-05 17:11 | 55.00539 | 160.89432 | 15108 ft | 210 kts | 43° |
| 2026-05-05 17:11 | 55.01673 | 160.91043 | 15107 ft | 210 kts | 44° |
| 2026-05-05 17:12 | 55.02803 | 160.92640 | 15113 ft | 209 kts | 44° |
| 2026-05-05 17:12 | 55.03934 | 160.94241 | 15115 ft | 210 kts | 43° |
| 2026-05-05 17:12 | 55.05065 | 160.95840 | 15113 ft | 209 kts | 44° |
| 2026-05-05 17:12 | 55.06194 | 160.97442 | 15116 ft | 209 kts | 44° |
| 2026-05-05 17:13 | 55.07319 | 160.99040 | 15113 ft | 208 kts | 44° |
| 2026-05-05 17:13 | 55.08446 | 161.00637 | 15115 ft | 209 kts | 44° |
| 2026-05-05 17:13 | 55.09573 | 161.02238 | 15112 ft | 209 kts | 44° |
| 2026-05-05 17:13 | 55.10700 | 161.03841 | 15115 ft | 209 kts | 44° |
| 2026-05-05 17:14 | 55.11830 | 161.05446 | 15118 ft | 209 kts | 44° |
| 2026-05-05 17:14 | 55.12958 | 161.07051 | 15121 ft | 209 kts | 44° |
| 2026-05-05 17:14 | 55.14087 | 161.08665 | 15131 ft | 210 kts | 44° |
| 2026-05-05 17:14 | 55.15220 | 161.10276 | 15127 ft | 210 kts | 44° |
| 2026-05-05 17:15 | 55.16353 | 161.11894 | 15127 ft | 210 kts | 44° |
| 2026-05-05 17:15 | 55.17485 | 161.13510 | 15129 ft | 210 kts | 44° |
| 2026-05-05 17:15 | 55.18618 | 161.15130 | 15127 ft | 210 kts | 44° |
| 2026-05-05 17:15 | 55.19743 | 161.16743 | 15121 ft | 209 kts | 44° |
| 2026-05-05 17:16 | 55.20869 | 161.18350 | 15127 ft | 209 kts | 44° |
| 2026-05-05 17:16 | 55.21996 | 161.19964 | 15124 ft | 210 kts | 44° |
| 2026-05-05 17:16 | 55.23120 | 161.21578 | 15135 ft | 209 kts | 44° |
| 2026-05-05 17:16 | 55.24246 | 161.23199 | 15132 ft | 210 kts | 44° |
| 2026-05-05 17:17 | 55.25379 | 161.24823 | 15129 ft | 211 kts | 44° |
| 2026-05-05 17:17 | 55.26518 | 161.26454 | 15132 ft | 211 kts | 44° |
| 2026-05-05 17:17 | 55.27650 | 161.28081 | 15141 ft | 211 kts | 44° |
| 2026-05-05 17:17 | 55.28769 | 161.29693 | 15132 ft | 211 kts | 44° |
| 2026-05-05 17:18 | 55.29902 | 161.31323 | 15135 ft | 210 kts | 45° |
| 2026-05-05 17:18 | 55.31047 | 161.32968 | 15138 ft | 209 kts | 44° |
| 2026-05-05 17:18 | 55.32159 | 161.34573 | 15148 ft | 209 kts | 45° |
| 2026-05-05 17:18 | 55.33282 | 161.36213 | 15149 ft | 212 kts | 45° |
| 2026-05-05 17:19 | 55.34425 | 161.37861 | 15150 ft | 212 kts | 44° |
| 2026-05-05 17:19 | 55.35567 | 161.39492 | 15150 ft | 210 kts | 45° |
| 2026-05-05 17:19 | 55.36689 | 161.41123 | 15149 ft | 210 kts | 45° |
| 2026-05-05 17:19 | 55.37818 | 161.42757 | 15148 ft | 211 kts | 45° |
| 2026-05-05 17:20 | 55.38958 | 161.44404 | 15146 ft | 211 kts | 44° |
| 2026-05-05 17:20 | 55.40084 | 161.46034 | 15146 ft | 210 kts | 45° |
| 2026-05-05 17:20 | 55.41216 | 161.47670 | 15155 ft | 210 kts | 44° |
| 2026-05-05 17:20 | 55.42339 | 161.49302 | 15155 ft | 210 kts | 45° |
| 2026-05-05 17:21 | 55.43459 | 161.50922 | 15153 ft | 209 kts | 44° |
| 2026-05-05 17:21 | 55.44583 | 161.52548 | 15153 ft | 209 kts | 46° |
| 2026-05-05 17:21 | 55.45681 | 161.54187 | 15150 ft | 207 kts | 46° |
| 2026-05-05 17:22 | 55.47919 | 161.57428 | 15152 ft | 208 kts | 45° |
| 2026-05-05 17:22 | 55.49035 | 161.59053 | 15151 ft | 208 kts | 45° |
| 2026-05-05 17:22 | 55.50149 | 161.60664 | 15164 ft | 207 kts | 45° |
| 2026-05-05 17:22 | 55.51260 | 161.62282 | 15164 ft | 207 kts | 46° |
| 2026-05-05 17:23 | 55.52365 | 161.63921 | 15164 ft | 208 kts | 46° |
| 2026-05-05 17:23 | 55.53471 | 161.65545 | 15160 ft | 204 kts | 46° |
| 2026-05-05 17:23 | 55.54564 | 161.67158 | 15162 ft | 205 kts | 45° |
| 2026-05-05 17:23 | 55.55668 | 161.68754 | 15161 ft | 205 kts | 45° |
| 2026-05-05 17:24 | 55.56767 | 161.70362 | 15162 ft | 205 kts | 46° |
| 2026-05-05 17:24 | 55.57863 | 161.71974 | 15162 ft | 205 kts | 46° |
| 2026-05-05 17:24 | 55.58963 | 161.73585 | 15162 ft | 205 kts | 46° |
| 2026-05-05 17:24 | 55.60061 | 161.75201 | 15162 ft | 206 kts | 46° |
| 2026-05-05 17:25 | 55.61163 | 161.76824 | 15162 ft | 206 kts | 46° |
| 2026-05-05 17:25 | 55.61893 | 161.77897 | 15168 ft | 206 kts | 46° |
| 2026-05-05 17:25 | 55.63367 | 161.80069 | 15172 ft | 206 kts | 46° |
| 2026-05-05 17:25 | 55.64473 | 161.81697 | 15173 ft | 207 kts | 46° |
| 2026-05-05 17:26 | 55.65582 | 161.83330 | 15173 ft | 208 kts | 46° |
| 2026-05-05 17:26 | 55.66692 | 161.84968 | 15174 ft | 208 kts | 46° |
| 2026-05-05 17:26 | 55.67805 | 161.86613 | 15175 ft | 208 kts | 46° |
| 2026-05-05 17:26 | 55.68919 | 161.88258 | 15175 ft | 209 kts | 46° |
| 2026-05-05 17:27 | 55.70019 | 161.89887 | 15176 ft | 209 kts | 46° |
| 2026-05-05 17:27 | 55.71136 | 161.91540 | 15184 ft | 209 kts | 46° |
| 2026-05-05 17:27 | 55.72257 | 161.93197 | 15185 ft | 210 kts | 46° |
| 2026-05-05 17:27 | 55.73381 | 161.94863 | 15186 ft | 211 kts | 46° |
| 2026-05-05 17:28 | 55.74506 | 161.96531 | 15187 ft | 211 kts | 46° |
| 2026-05-05 17:28 | 55.75631 | 161.98204 | 15187 ft | 211 kts | 46° |
| 2026-05-05 17:28 | 55.76757 | 161.99875 | 15186 ft | 211 kts | 46° |
| 2026-05-05 17:28 | 55.77883 | 162.01548 | 15183 ft | 211 kts | 46° |
| 2026-05-05 17:29 | 55.79007 | 162.03224 | 15187 ft | 211 kts | 46° |
| 2026-05-05 17:29 | 55.80132 | 162.04901 | 15191 ft | 211 kts | 46° |
| 2026-05-05 17:29 | 55.81255 | 162.06575 | 15193 ft | 211 kts | 46° |
| 2026-05-05 17:29 | 55.82381 | 162.08253 | 15193 ft | 211 kts | 46° |
| 2026-05-05 17:30 | 55.83504 | 162.09929 | 15193 ft | 211 kts | 46° |
| 2026-05-05 17:30 | 55.84628 | 162.11609 | 15193 ft | 211 kts | 46° |
| 2026-05-05 17:30 | 55.85753 | 162.13291 | 15189 ft | 211 kts | 46° |
| 2026-05-05 17:30 | 55.86878 | 162.14975 | 15192 ft | 211 kts | 46° |
| 2026-05-05 17:31 | 55.88001 | 162.16658 | 15191 ft | 211 kts | 46° |
| 2026-05-05 17:31 | 55.89123 | 162.18341 | 15202 ft | 211 kts | 46° |
| 2026-05-05 17:31 | 55.90245 | 162.20025 | 15201 ft | 211 kts | 46° |
| 2026-05-05 17:31 | 55.91368 | 162.21711 | 15201 ft | 211 kts | 46° |
| 2026-05-05 17:32 | 55.92491 | 162.23397 | 15201 ft | 211 kts | 46° |
| 2026-05-05 17:32 | 55.93614 | 162.25086 | 15201 ft | 211 kts | 46° |
| 2026-05-05 17:32 | 55.94740 | 162.26780 | 15201 ft | 212 kts | 46° |
| 2026-05-05 17:32 | 55.95864 | 162.28472 | 15200 ft | 212 kts | 46° |
| 2026-05-05 17:33 | 55.96989 | 162.30168 | 15201 ft | 212 kts | 46° |
| 2026-05-05 17:33 | 55.98112 | 162.31861 | 15210 ft | 211 kts | 46° |
| 2026-05-05 17:33 | 55.99235 | 162.33560 | 15210 ft | 211 kts | 46° |
| 2026-05-05 17:33 | 56.00358 | 162.35255 | 15210 ft | 211 kts | 46° |
| 2026-05-05 17:34 | 56.01480 | 162.36952 | 15210 ft | 211 kts | 46° |
| 2026-05-05 17:34 | 56.02602 | 162.38648 | 15210 ft | 211 kts | 46° |
| 2026-05-05 17:34 | 56.03723 | 162.40346 | 15209 ft | 211 kts | 47° |
| 2026-05-05 17:34 | 56.04844 | 162.42048 | 15209 ft | 211 kts | 47° |
| 2026-05-05 17:35 | 56.05964 | 162.43745 | 15209 ft | 211 kts | 47° |
| 2026-05-05 17:35 | 56.07081 | 162.45441 | 15220 ft | 210 kts | 47° |
| 2026-05-05 17:35 | 56.08197 | 162.47138 | 15219 ft | 211 kts | 47° |
| 2026-05-05 17:35 | 56.09316 | 162.48838 | 15219 ft | 211 kts | 47° |
| 2026-05-05 17:36 | 56.10434 | 162.50538 | 15219 ft | 211 kts | 47° |
| 2026-05-05 17:36 | 56.11553 | 162.52243 | 15219 ft | 211 kts | 47° |
| 2026-05-05 17:36 | 56.12672 | 162.53947 | 15218 ft | 211 kts | 47° |
| 2026-05-05 17:36 | 56.13790 | 162.55653 | 15218 ft | 211 kts | 47° |
| 2026-05-05 17:37 | 56.14909 | 162.57361 | 15218 ft | 211 kts | 47° |
| 2026-05-05 17:37 | 56.15647 | 162.58489 | 15229 ft | 211 kts | 47° |
| 2026-05-05 17:37 | 56.17124 | 162.60746 | 15228 ft | 211 kts | 47° |
| 2026-05-05 17:37 | 56.18242 | 162.62455 | 15228 ft | 211 kts | 47° |
| 2026-05-05 17:38 | 56.19358 | 162.64165 | 15228 ft | 211 kts | 47° |
| 2026-05-05 17:38 | 56.20475 | 162.65873 | 15228 ft | 211 kts | 47° |
| 2026-05-05 17:38 | 56.21589 | 162.67583 | 15228 ft | 211 kts | 47° |
| 2026-05-05 17:38 | 56.22854 | 162.68964 | 15225 ft | 218 kts | 25° |
| 2026-05-05 17:39 | 56.24340 | 162.69611 | 15228 ft | 221 kts | 16° |
| 2026-05-05 17:39 | 56.25836 | 162.70200 | 15239 ft | 220 kts | 17° |
| 2026-05-05 17:39 | 56.27331 | 162.70813 | 15239 ft | 220 kts | 17° |
| 2026-05-05 17:39 | 56.28826 | 162.71424 | 15239 ft | 220 kts | 17° |
| 2026-05-05 17:40 | 56.30322 | 162.72034 | 15239 ft | 221 kts | 17° |
| 2026-05-05 17:40 | 56.31821 | 162.72643 | 15239 ft | 221 kts | 17° |
| 2026-05-05 17:40 | 56.33320 | 162.73255 | 15239 ft | 221 kts | 17° |
| 2026-05-05 17:40 | 56.34820 | 162.73867 | 15239 ft | 221 kts | 17° |
| 2026-05-05 17:41 | 56.36322 | 162.74481 | 15239 ft | 221 kts | 17° |
| 2026-05-05 17:41 | 56.37823 | 162.75095 | 15239 ft | 221 kts | 17° |
| 2026-05-05 17:41 | 56.39323 | 162.75708 | 15239 ft | 221 kts | 17° |
| 2026-05-05 17:41 | 56.40822 | 162.76322 | 15239 ft | 221 kts | 17° |
| 2026-05-05 17:42 | 56.42320 | 162.76936 | 15248 ft | 221 kts | 17° |
| 2026-05-05 17:42 | 56.43818 | 162.77552 | 15247 ft | 220 kts | 17° |
| 2026-05-05 17:42 | 56.45313 | 162.78164 | 15246 ft | 220 kts | 17° |
| 2026-05-05 17:42 | 56.46806 | 162.78779 | 15246 ft | 221 kts | 17° |
| 2026-05-05 17:43 | 56.48286 | 162.79388 | 15246 ft | 221 kts | 17° |
| 2026-05-05 17:43 | 56.49804 | 162.80012 | 15246 ft | 221 kts | 17° |
| 2026-05-05 17:43 | 56.51289 | 162.80622 | 15247 ft | 222 kts | 17° |
| 2026-05-05 17:43 | 56.52791 | 162.81241 | 15247 ft | 221 kts | 17° |
| 2026-05-05 17:44 | 56.54292 | 162.81862 | 15248 ft | 221 kts | 17° |
| 2026-05-05 17:44 | 56.55798 | 162.82484 | 15248 ft | 222 kts | 18° |
| 2026-05-05 17:44 | 56.57301 | 162.83104 | 15257 ft | 221 kts | 18° |
| 2026-05-05 17:44 | 56.58805 | 162.83725 | 15257 ft | 222 kts | 18° |
| 2026-05-05 17:45 | 56.60309 | 162.84351 | 15258 ft | 222 kts | 18° |
| 2026-05-05 17:45 | 56.61814 | 162.84976 | 15257 ft | 222 kts | 18° |
| 2026-05-05 17:45 | 56.63317 | 162.85596 | 15257 ft | 221 kts | 18° |
| 2026-05-05 17:45 | 56.64818 | 162.86223 | 15255 ft | 221 kts | 18° |
| 2026-05-05 17:46 | 56.66320 | 162.86843 | 15258 ft | 221 kts | 17° |
| 2026-05-05 17:46 | 56.67818 | 162.87463 | 15258 ft | 221 kts | 18° |
| 2026-05-05 17:46 | 56.69319 | 162.88089 | 15258 ft | 221 kts | 18° |
| 2026-05-05 17:46 | 56.70819 | 162.88713 | 15257 ft | 221 kts | 18° |
| 2026-05-05 17:47 | 56.72321 | 162.89338 | 15257 ft | 221 kts | 18° |
| 2026-05-05 17:47 | 56.73815 | 162.89963 | 15267 ft | 220 kts | 18° |
| 2026-05-05 17:47 | 56.75309 | 162.90589 | 15266 ft | 221 kts | 18° |
| 2026-05-05 17:47 | 56.76805 | 162.91214 | 15266 ft | 221 kts | 18° |
| 2026-05-05 17:48 | 56.78305 | 162.91839 | 15266 ft | 221 kts | 18° |
| 2026-05-05 17:48 | 56.79802 | 162.92464 | 15266 ft | 221 kts | 18° |
| 2026-05-05 17:48 | 56.81299 | 162.93094 | 15266 ft | 221 kts | 18° |
| 2026-05-05 17:48 | 56.82793 | 162.93718 | 15265 ft | 220 kts | 18° |
| 2026-05-05 17:49 | 56.84288 | 162.94346 | 15265 ft | 221 kts | 18° |
| 2026-05-05 17:49 | 56.85766 | 162.94968 | 15265 ft | 221 kts | 18° |
| 2026-05-05 17:49 | 56.87282 | 162.95605 | 15265 ft | 221 kts | 18° |
| 2026-05-05 17:49 | 56.88783 | 162.96237 | 15265 ft | 221 kts | 18° |
| 2026-05-05 17:50 | 56.90279 | 162.96864 | 15276 ft | 220 kts | 18° |
| 2026-05-05 17:50 | 56.91755 | 162.97488 | 15276 ft | 221 kts | 18° |
| 2026-05-05 17:50 | 56.93249 | 162.98116 | 15275 ft | 221 kts | 18° |
| 2026-05-05 17:50 | 56.94746 | 162.98748 | 15275 ft | 221 kts | 18° |
| 2026-05-05 17:51 | 56.96241 | 162.99377 | 15275 ft | 220 kts | 18° |
| 2026-05-05 17:51 | 56.97738 | 163.00009 | 15276 ft | 221 kts | 18° |
| 2026-05-05 17:51 | 56.99236 | 163.00646 | 15276 ft | 221 kts | 18° |
| 2026-05-05 17:51 | 57.00737 | 163.01281 | 15276 ft | 221 kts | 18° |
| 2026-05-05 17:52 | 57.02237 | 163.01914 | 15276 ft | 221 kts | 18° |
| 2026-05-05 17:52 | 57.03739 | 163.02551 | 15275 ft | 221 kts | 18° |
| 2026-05-05 17:52 | 57.05234 | 163.03188 | 15274 ft | 220 kts | 18° |
| 2026-05-05 17:52 | 57.06724 | 163.03819 | 15285 ft | 220 kts | 18° |
| 2026-05-05 17:53 | 57.08221 | 163.04456 | 15285 ft | 221 kts | 18° |
| 2026-05-05 17:53 | 57.09722 | 163.05092 | 15285 ft | 222 kts | 18° |
| 2026-05-05 17:53 | 57.11223 | 163.05732 | 15285 ft | 221 kts | 18° |
| 2026-05-05 17:53 | 57.12723 | 163.06375 | 15285 ft | 221 kts | 18° |
| 2026-05-05 17:54 | 57.14223 | 163.07016 | 15286 ft | 221 kts | 18° |
| 2026-05-05 17:54 | 57.15723 | 163.07652 | 15286 ft | 221 kts | 18° |
| 2026-05-05 17:54 | 57.17224 | 163.08293 | 15285 ft | 221 kts | 18° |
| 2026-05-05 17:54 | 57.18720 | 163.08934 | 15285 ft | 221 kts | 18° |
| 2026-05-05 17:55 | 57.20214 | 163.09573 | 15284 ft | 220 kts | 18° |
| 2026-05-05 17:55 | 57.21707 | 163.10214 | 15283 ft | 220 kts | 18° |
| 2026-05-05 17:55 | 57.23197 | 163.10852 | 15283 ft | 220 kts | 18° |
| 2026-05-05 17:55 | 57.24683 | 163.11490 | 15294 ft | 219 kts | 18° |
| 2026-05-05 17:56 | 57.26164 | 163.12127 | 15292 ft | 219 kts | 18° |
| 2026-05-05 17:56 | 57.27144 | 163.12548 | 15292 ft | 218 kts | 18° |
| 2026-05-05 17:56 | 57.28622 | 163.13184 | 15292 ft | 218 kts | 18° |
| 2026-05-05 17:56 | 57.30094 | 163.13819 | 15293 ft | 217 kts | 18° |
| 2026-05-05 17:57 | 57.31567 | 163.14454 | 15292 ft | 217 kts | 18° |
| 2026-05-05 17:57 | 57.33040 | 163.15086 | 15292 ft | 217 kts | 18° |
| 2026-05-05 17:57 | 57.34516 | 163.15720 | 15292 ft | 217 kts | 18° |
| 2026-05-05 17:57 | 57.35988 | 163.16358 | 15292 ft | 217 kts | 19° |
| 2026-05-05 17:58 | 57.37460 | 163.16995 | 15293 ft | 217 kts | 18° |
| 2026-05-05 17:58 | 57.38927 | 163.17629 | 15292 ft | 217 kts | 18° |
| 2026-05-05 17:58 | 57.40395 | 163.18264 | 15293 ft | 215 kts | 19° |
| 2026-05-05 17:58 | 57.41849 | 163.18893 | 15302 ft | 214 kts | 19° |
| 2026-05-05 17:59 | 57.43299 | 163.19523 | 15302 ft | 214 kts | 19° |
| 2026-05-05 17:59 | 57.44747 | 163.20153 | 15302 ft | 214 kts | 19° |
| 2026-05-05 17:59 | 57.46194 | 163.20783 | 15307 ft | 214 kts | 19° |
| 2026-05-05 17:59 | 57.47639 | 163.21412 | 15301 ft | 212 kts | 19° |
| 2026-05-05 18:00 | 57.49079 | 163.22038 | 15303 ft | 213 kts | 19° |
| 2026-05-05 18:00 | 57.50522 | 163.22663 | 15311 ft | 213 kts | 19° |
| 2026-05-05 18:00 | 57.51961 | 163.23290 | 15302 ft | 212 kts | 19° |
| 2026-05-05 18:00 | 57.53398 | 163.23917 | 15301 ft | 211 kts | 19° |
| 2026-05-05 18:01 | 57.54825 | 163.24540 | 15301 ft | 211 kts | 19° |
| 2026-05-05 18:01 | 57.56248 | 163.25167 | 15301 ft | 210 kts | 19° |
| 2026-05-05 18:01 | 57.57673 | 163.25790 | 15302 ft | 210 kts | 19° |
| 2026-05-05 18:01 | 57.59094 | 163.26412 | 15303 ft | 210 kts | 19° |
| 2026-05-05 18:02 | 57.60519 | 163.27032 | 15322 ft | 210 kts | 19° |
| 2026-05-05 18:02 | 57.61940 | 163.27655 | 15310 ft | 210 kts | 19° |
| 2026-05-05 18:02 | 57.63349 | 163.28273 | 15310 ft | 211 kts | 19° |
| 2026-05-05 18:02 | 57.64798 | 163.28907 | 15310 ft | 211 kts | 19° |
| 2026-05-05 18:03 | 57.66233 | 163.29537 | 15311 ft | 212 kts | 19° |
| 2026-05-05 18:03 | 57.67668 | 163.30167 | 15322 ft | 212 kts | 19° |
| 2026-05-05 18:03 | 57.69088 | 163.30791 | 15312 ft | 213 kts | 19° |
| 2026-05-05 18:03 | 57.70530 | 163.31425 | 15312 ft | 213 kts | 19° |
| 2026-05-05 18:04 | 57.71998 | 163.31881 | 15306 ft | 218 kts | 4° |
| 2026-05-05 18:04 | 57.73518 | 163.31623 | 15316 ft | 219 kts | 358° |
| 2026-05-05 18:04 | 57.75039 | 163.31370 | 15312 ft | 220 kts | 359° |
| 2026-05-05 18:04 | 57.76564 | 163.31135 | 15313 ft | 220 kts | 359° |
| 2026-05-05 18:05 | 57.78096 | 163.30889 | 15314 ft | 221 kts | 359° |
| 2026-05-05 18:05 | 57.79628 | 163.30639 | 15320 ft | 221 kts | 359° |
| 2026-05-05 18:05 | 57.81162 | 163.30390 | 15320 ft | 222 kts | 359° |
| 2026-05-05 18:05 | 57.82703 | 163.30140 | 15322 ft | 222 kts | 359° |
| 2026-05-05 18:06 | 57.84244 | 163.29891 | 15326 ft | 223 kts | 359° |
| 2026-05-05 18:06 | 57.85266 | 163.29724 | 15327 ft | 223 kts | 359° |
| 2026-05-05 18:06 | 57.87339 | 163.29387 | 15326 ft | 224 kts | 359° |
| 2026-05-05 18:06 | 57.88891 | 163.29133 | 15323 ft | 224 kts | 359° |
| 2026-05-05 18:07 | 57.90446 | 163.28880 | 15330 ft | 225 kts | 359° |
| 2026-05-05 18:07 | 57.92006 | 163.28626 | 15329 ft | 225 kts | 358° |
| 2026-05-05 18:07 | 57.93567 | 163.28370 | 15325 ft | 225 kts | 359° |
| 2026-05-05 18:07 | 57.95130 | 163.28116 | 15331 ft | 225 kts | 358° |
| 2026-05-05 18:08 | 57.96690 | 163.27861 | 15326 ft | 225 kts | 358° |
| 2026-05-05 18:08 | 57.98250 | 163.27607 | 15330 ft | 225 kts | 358° |
| 2026-05-05 18:08 | 57.99810 | 163.27352 | 15328 ft | 224 kts | 359° |
| 2026-05-05 18:08 | 58.01365 | 163.27099 | 15329 ft | 224 kts | 358° |
| 2026-05-05 18:09 | 58.02915 | 163.26845 | 15323 ft | 223 kts | 358° |
| 2026-05-05 18:09 | 58.04462 | 163.26590 | 15327 ft | 223 kts | 358° |
| 2026-05-05 18:09 | 58.06009 | 163.26336 | 15323 ft | 222 kts | 359° |
| 2026-05-05 18:09 | 58.07545 | 163.26076 | 15326 ft | 221 kts | 359° |
| 2026-05-05 18:10 | 58.09067 | 163.25826 | 15324 ft | 219 kts | 359° |
| 2026-05-05 18:10 | 58.10583 | 163.25581 | 15322 ft | 219 kts | 359° |
| 2026-05-05 18:10 | 58.12096 | 163.25334 | 15320 ft | 218 kts | 359° |
| 2026-05-05 18:10 | 58.13607 | 163.25086 | 15319 ft | 218 kts | 359° |
| 2026-05-05 18:11 | 58.15091 | 163.24842 | 15330 ft | 217 kts | 359° |
| 2026-05-05 18:11 | 58.16596 | 163.24594 | 15334 ft | 217 kts | 359° |
| 2026-05-05 18:11 | 58.18106 | 163.24345 | 15333 ft | 218 kts | 359° |
| 2026-05-05 18:11 | 58.19616 | 163.24095 | 15335 ft | 218 kts | 359° |
| 2026-05-05 18:12 | 58.21127 | 163.23843 | 15332 ft | 218 kts | 359° |
| 2026-05-05 18:12 | 58.22644 | 163.23594 | 15330 ft | 219 kts | 359° |
| 2026-05-05 18:12 | 58.24166 | 163.23339 | 15335 ft | 219 kts | 359° |
| 2026-05-05 18:12 | 58.25690 | 163.23086 | 15334 ft | 220 kts | 359° |
| 2026-05-05 18:13 | 58.27216 | 163.22831 | 15332 ft | 220 kts | 359° |
| 2026-05-05 18:13 | 58.28743 | 163.22577 | 15338 ft | 221 kts | 359° |
| 2026-05-05 18:13 | 58.30271 | 163.22323 | 15337 ft | 221 kts | 359° |
| 2026-05-05 18:13 | 58.31801 | 163.22069 | 15333 ft | 220 kts | 359° |
| 2026-05-05 18:14 | 58.33327 | 163.21816 | 15332 ft | 220 kts | 359° |
| 2026-05-05 18:14 | 58.34858 | 163.21559 | 15332 ft | 221 kts | 359° |
| 2026-05-05 18:14 | 58.36387 | 163.21304 | 15332 ft | 221 kts | 359° |
| 2026-05-05 18:14 | 58.37917 | 163.21048 | 15336 ft | 221 kts | 359° |
| 2026-05-05 18:15 | 58.39449 | 163.20791 | 15332 ft | 221 kts | 359° |
| 2026-05-05 18:15 | 58.40980 | 163.20535 | 15337 ft | 221 kts | 359° |
| 2026-05-05 18:15 | 58.42509 | 163.20279 | 15331 ft | 221 kts | 359° |
| 2026-05-05 18:15 | 58.44038 | 163.20022 | 15335 ft | 220 kts | 359° |
| 2026-05-05 18:16 | 58.45567 | 163.19767 | 15337 ft | 221 kts | 359° |
| 2026-05-05 18:16 | 58.47096 | 163.19509 | 15336 ft | 221 kts | 359° |
| 2026-05-05 18:16 | 58.48621 | 163.19254 | 15342 ft | 220 kts | 359° |
| 2026-05-05 18:16 | 58.50152 | 163.18997 | 15341 ft | 221 kts | 359° |
| 2026-05-05 18:17 | 58.51681 | 163.18737 | 15341 ft | 221 kts | 359° |
| 2026-05-05 18:17 | 58.53210 | 163.18479 | 15341 ft | 221 kts | 359° |
| 2026-05-05 18:17 | 58.54719 | 163.18226 | 15341 ft | 221 kts | 359° |
| 2026-05-05 18:17 | 58.56249 | 163.17967 | 15340 ft | 221 kts | 359° |
| 2026-05-05 18:18 | 58.57779 | 163.17709 | 15340 ft | 221 kts | 359° |
| 2026-05-05 18:18 | 58.59310 | 163.17449 | 15340 ft | 221 kts | 359° |
| 2026-05-05 18:18 | 58.60840 | 163.17189 | 15340 ft | 221 kts | 359° |
| 2026-05-05 18:18 | 58.62371 | 163.16931 | 15340 ft | 221 kts | 359° |
| 2026-05-05 18:19 | 58.63898 | 163.16671 | 15339 ft | 220 kts | 359° |
| 2026-05-05 18:19 | 58.65428 | 163.16413 | 15339 ft | 221 kts | 359° |
| 2026-05-05 18:19 | 58.66957 | 163.16152 | 15339 ft | 221 kts | 359° |
| 2026-05-05 18:19 | 58.68488 | 163.15893 | 15340 ft | 221 kts | 359° |
| 2026-05-05 18:20 | 58.70016 | 163.15633 | 15340 ft | 221 kts | 359° |
| 2026-05-05 18:20 | 58.71544 | 163.15372 | 15340 ft | 221 kts | 359° |
| 2026-05-05 18:20 | 58.73074 | 163.15110 | 15339 ft | 221 kts | 359° |
| 2026-05-05 18:20 | 58.74602 | 163.14850 | 15339 ft | 221 kts | 359° |
| 2026-05-05 18:21 | 58.76132 | 163.14588 | 15339 ft | 221 kts | 359° |
| 2026-05-05 18:21 | 58.77661 | 163.14327 | 15339 ft | 221 kts | 359° |
| 2026-05-05 18:21 | 58.79189 | 163.14066 | 15340 ft | 221 kts | 359° |
| 2026-05-05 18:21 | 58.80719 | 163.13804 | 15340 ft | 221 kts | 359° |
| 2026-05-05 18:22 | 58.82250 | 163.13541 | 15345 ft | 220 kts | 359° |
| 2026-05-05 18:22 | 58.83776 | 163.13280 | 15351 ft | 220 kts | 359° |
| 2026-05-05 18:22 | 58.85303 | 163.13017 | 15351 ft | 221 kts | 359° |
| 2026-05-05 18:22 | 58.86834 | 163.12752 | 15351 ft | 221 kts | 359° |
| 2026-05-05 18:23 | 58.88364 | 163.12491 | 15351 ft | 221 kts | 359° |
| 2026-05-05 18:23 | 58.89893 | 163.12227 | 15350 ft | 220 kts | 359° |
| 2026-05-05 18:23 | 58.91421 | 163.11964 | 15350 ft | 220 kts | 359° |
| 2026-05-05 18:23 | 58.92947 | 163.11701 | 15350 ft | 220 kts | 359° |
| 2026-05-05 18:24 | 58.94478 | 163.11438 | 15349 ft | 221 kts | 359° |
| 2026-05-05 18:24 | 58.96008 | 163.11172 | 15349 ft | 221 kts | 359° |
| 2026-05-05 18:24 | 58.97540 | 163.10907 | 15349 ft | 221 kts | 359° |
| 2026-05-05 18:24 | 58.99073 | 163.10641 | 15349 ft | 221 kts | 359° |
| 2026-05-05 18:25 | 59.00604 | 163.10377 | 15348 ft | 221 kts | 359° |
| 2026-05-05 18:25 | 59.01619 | 163.10201 | 15348 ft | 221 kts | 359° |
| 2026-05-05 18:25 | 59.03670 | 163.09845 | 15348 ft | 221 kts | 359° |
| 2026-05-05 18:25 | 59.05202 | 163.09579 | 15348 ft | 221 kts | 359° |
| 2026-05-05 18:26 | 59.06735 | 163.09311 | 15348 ft | 221 kts | 359° |
| 2026-05-05 18:26 | 59.08266 | 163.09045 | 15350 ft | 221 kts | 359° |
| 2026-05-05 18:26 | 59.09797 | 163.08778 | 15349 ft | 221 kts | 359° |
| 2026-05-05 18:26 | 59.11327 | 163.08512 | 15349 ft | 221 kts | 359° |
| 2026-05-05 18:27 | 59.12860 | 163.08244 | 15349 ft | 221 kts | 359° |
| 2026-05-05 18:27 | 59.14374 | 163.07980 | 15351 ft | 221 kts | 359° |
| 2026-05-05 18:27 | 59.15927 | 163.07708 | 15351 ft | 221 kts | 359° |
| 2026-05-05 18:27 | 59.17442 | 163.07443 | 15357 ft | 221 kts | 359° |
| 2026-05-05 18:28 | 59.20506 | 163.06945 | 15352 ft | 220 kts | 4° |
| 2026-05-05 18:28 | 59.21977 | 163.07501 | 15351 ft | 213 kts | 27° |
| 2026-05-05 18:28 | 59.23228 | 163.08916 | 15351 ft | 205 kts | 47° |
| 2026-05-05 18:29 | 59.24179 | 163.10924 | 15355 ft | 200 kts | 58° |
| 2026-05-05 18:29 | 59.25068 | 163.13013 | 15357 ft | 200 kts | 57° |
| 2026-05-05 18:29 | 59.25961 | 163.15091 | 15357 ft | 200 kts | 57° |
| 2026-05-05 18:29 | 59.26850 | 163.17176 | 15358 ft | 200 kts | 57° |
| 2026-05-05 18:30 | 59.27739 | 163.19263 | 15358 ft | 200 kts | 57° |
| 2026-05-05 18:30 | 59.28628 | 163.21356 | 15359 ft | 200 kts | 57° |
| 2026-05-05 18:30 | 59.29521 | 163.23449 | 15358 ft | 200 kts | 57° |
| 2026-05-05 18:30 | 59.30411 | 163.25549 | 15359 ft | 200 kts | 57° |
| 2026-05-05 18:31 | 59.31300 | 163.27645 | 15358 ft | 200 kts | 57° |
| 2026-05-05 18:31 | 59.32190 | 163.29747 | 15358 ft | 201 kts | 57° |
| 2026-05-05 18:31 | 59.33081 | 163.31847 | 15358 ft | 201 kts | 57° |
| 2026-05-05 18:31 | 59.33970 | 163.33948 | 15358 ft | 200 kts | 57° |
| 2026-05-05 18:32 | 59.34859 | 163.36052 | 15359 ft | 200 kts | 57° |
| 2026-05-05 18:32 | 59.35747 | 163.38156 | 15359 ft | 200 kts | 57° |
| 2026-05-05 18:32 | 59.36635 | 163.40259 | 15359 ft | 200 kts | 58° |
| 2026-05-05 18:32 | 59.37512 | 163.42342 | 15359 ft | 201 kts | 58° |
| 2026-05-05 18:33 | 59.38401 | 163.44450 | 15358 ft | 201 kts | 58° |
| 2026-05-05 18:33 | 59.39288 | 163.46557 | 15369 ft | 200 kts | 58° |
| 2026-05-05 18:33 | 59.40174 | 163.48667 | 15370 ft | 200 kts | 58° |
| 2026-05-05 18:33 | 59.41061 | 163.50777 | 15369 ft | 201 kts | 58° |
| 2026-05-05 18:34 | 59.41949 | 163.52891 | 15369 ft | 201 kts | 58° |
| 2026-05-05 18:34 | 59.42836 | 163.55005 | 15369 ft | 201 kts | 58° |
| 2026-05-05 18:34 | 59.43722 | 163.57122 | 15369 ft | 201 kts | 58° |
| 2026-05-05 18:34 | 59.44608 | 163.59236 | 15368 ft | 200 kts | 58° |
| 2026-05-05 18:35 | 59.45494 | 163.61357 | 15368 ft | 201 kts | 58° |
| 2026-05-05 18:35 | 59.46378 | 163.63473 | 15368 ft | 201 kts | 58° |
| 2026-05-05 18:35 | 59.47264 | 163.65595 | 15368 ft | 201 kts | 58° |
| 2026-05-05 18:35 | 59.48148 | 163.67717 | 15380 ft | 200 kts | 58° |
| 2026-05-05 18:36 | 59.49033 | 163.69841 | 15379 ft | 201 kts | 58° |
| 2026-05-05 18:36 | 59.49916 | 163.71960 | 15378 ft | 201 kts | 58° |
| 2026-05-05 18:36 | 59.50803 | 163.74094 | 15378 ft | 201 kts | 58° |
| 2026-05-05 18:36 | 59.51680 | 163.76227 | 15378 ft | 200 kts | 59° |
| 2026-05-05 18:37 | 59.52542 | 163.78382 | 15378 ft | 200 kts | 59° |
| 2026-05-05 18:37 | 59.53407 | 163.80534 | 15378 ft | 201 kts | 59° |
| 2026-05-05 18:37 | 59.54274 | 163.82686 | 15378 ft | 201 kts | 59° |
| 2026-05-05 18:37 | 59.55143 | 163.84841 | 15378 ft | 201 kts | 59° |
| 2026-05-05 18:38 | 59.56009 | 163.86995 | 15378 ft | 201 kts | 59° |
| 2026-05-05 18:38 | 59.56876 | 163.89152 | 15377 ft | 200 kts | 59° |
| 2026-05-05 18:38 | 59.57739 | 163.91301 | 15390 ft | 200 kts | 59° |
| 2026-05-05 18:38 | 59.58602 | 163.93455 | 15386 ft | 200 kts | 59° |
| 2026-05-05 18:39 | 59.59467 | 163.95609 | 15389 ft | 200 kts | 59° |
| 2026-05-05 18:39 | 59.60331 | 163.97768 | 15389 ft | 201 kts | 59° |
| 2026-05-05 18:39 | 59.61194 | 163.99927 | 15384 ft | 201 kts | 59° |
| 2026-05-05 18:39 | 59.62059 | 164.02090 | 15389 ft | 201 kts | 59° |
| 2026-05-05 18:40 | 59.62927 | 164.04260 | 15386 ft | 201 kts | 59° |
| 2026-05-05 18:40 | 59.63791 | 164.06426 | 15389 ft | 201 kts | 59° |
| 2026-05-05 18:40 | 59.64656 | 164.08597 | 15386 ft | 201 kts | 59° |
| 2026-05-05 18:40 | 59.65522 | 164.10772 | 15388 ft | 201 kts | 59° |
| 2026-05-05 18:41 | 59.66386 | 164.12944 | 15385 ft | 201 kts | 59° |
| 2026-05-05 18:41 | 59.67250 | 164.15115 | 15399 ft | 201 kts | 59° |
| 2026-05-05 18:41 | 59.68112 | 164.17287 | 15399 ft | 201 kts | 59° |
| 2026-05-05 18:41 | 59.68974 | 164.19462 | 15396 ft | 201 kts | 59° |
| 2026-05-05 18:42 | 59.69837 | 164.21636 | 15395 ft | 201 kts | 59° |
| 2026-05-05 18:42 | 59.70699 | 164.23815 | 15398 ft | 201 kts | 59° |
| 2026-05-05 18:42 | 59.71561 | 164.25993 | 15398 ft | 201 kts | 59° |
| 2026-05-05 18:42 | 59.72423 | 164.28172 | 15396 ft | 201 kts | 59° |
| 2026-05-05 18:43 | 59.73284 | 164.30352 | 15395 ft | 201 kts | 59° |
| 2026-05-05 18:43 | 59.74146 | 164.32538 | 15398 ft | 201 kts | 59° |
| 2026-05-05 18:43 | 59.75005 | 164.34719 | 15393 ft | 201 kts | 59° |
| 2026-05-05 18:43 | 59.75865 | 164.36900 | 15410 ft | 200 kts | 59° |
| 2026-05-05 18:44 | 59.76432 | 164.38342 | 15412 ft | 200 kts | 59° |
| 2026-05-05 18:44 | 59.77290 | 164.40526 | 15409 ft | 201 kts | 59° |
| 2026-05-05 18:44 | 59.78150 | 164.42712 | 15409 ft | 201 kts | 59° |
| 2026-05-05 18:44 | 59.79009 | 164.44904 | 15410 ft | 201 kts | 59° |
| 2026-05-05 18:45 | 59.79868 | 164.47093 | 15413 ft | 200 kts | 59° |
| 2026-05-05 18:45 | 59.80725 | 164.49283 | 15409 ft | 201 kts | 59° |
| 2026-05-05 18:45 | 59.81857 | 164.52179 | 15408 ft | 200 kts | 59° |
| 2026-05-05 18:45 | 59.82708 | 164.54357 | 15404 ft | 199 kts | 59° |
| 2026-05-05 18:46 | 59.83282 | 164.55822 | 15408 ft | 199 kts | 59° |
| 2026-05-05 18:46 | 59.84133 | 164.58002 | 15414 ft | 199 kts | 59° |
| 2026-05-05 18:46 | 59.84979 | 164.60172 | 15416 ft | 199 kts | 59° |
| 2026-05-05 18:46 | 59.85825 | 164.62349 | 15415 ft | 199 kts | 59° |
| 2026-05-05 18:47 | 59.86670 | 164.64525 | 15414 ft | 199 kts | 59° |
| 2026-05-05 18:47 | 59.87518 | 164.66698 | 15417 ft | 199 kts | 59° |
| 2026-05-05 18:47 | 59.88361 | 164.68869 | 15418 ft | 198 kts | 59° |
| 2026-05-05 18:47 | 59.89203 | 164.71043 | 15415 ft | 198 kts | 59° |
| 2026-05-05 18:48 | 59.90045 | 164.73214 | 15415 ft | 197 kts | 59° |
| 2026-05-05 18:48 | 59.90881 | 164.75374 | 15418 ft | 196 kts | 59° |
| 2026-05-05 18:48 | 59.91714 | 164.77528 | 15413 ft | 196 kts | 59° |
| 2026-05-05 18:48 | 59.92545 | 164.79678 | 15416 ft | 196 kts | 59° |
| 2026-05-05 18:49 | 59.93373 | 164.81820 | 15424 ft | 194 kts | 59° |
| 2026-05-05 18:49 | 59.94196 | 164.83957 | 15422 ft | 194 kts | 59° |
| 2026-05-05 18:49 | 59.95019 | 164.86094 | 15424 ft | 195 kts | 59° |
| 2026-05-05 18:49 | 59.95836 | 164.88208 | 15423 ft | 195 kts | 59° |
| 2026-05-05 18:50 | 59.96662 | 164.90355 | 15422 ft | 195 kts | 59° |
| 2026-05-05 18:50 | 59.97487 | 164.92503 | 15423 ft | 195 kts | 59° |
| 2026-05-05 18:50 | 59.98312 | 164.94652 | 15423 ft | 195 kts | 59° |
| 2026-05-05 18:50 | 59.99140 | 164.96808 | 15423 ft | 196 kts | 59° |
| 2026-05-05 18:51 | 59.99968 | 164.98967 | 15423 ft | 196 kts | 59° |
| 2026-05-05 18:51 | 60.00798 | 165.01133 | 15424 ft | 197 kts | 59° |
| 2026-05-05 18:51 | 60.01629 | 165.03301 | 15435 ft | 197 kts | 59° |
| 2026-05-05 18:51 | 60.02459 | 165.05474 | 15435 ft | 197 kts | 59° |
| 2026-05-05 18:52 | 60.03292 | 165.07660 | 15436 ft | 198 kts | 59° |
| 2026-05-05 18:52 | 60.04129 | 165.09845 | 15436 ft | 198 kts | 59° |
| 2026-05-05 18:52 | 60.04964 | 165.12033 | 15436 ft | 197 kts | 59° |
| 2026-05-05 18:52 | 60.05793 | 165.14214 | 15435 ft | 197 kts | 59° |
| 2026-05-05 18:53 | 60.06625 | 165.16400 | 15434 ft | 197 kts | 59° |
| 2026-05-05 18:53 | 60.07456 | 165.18587 | 15434 ft | 198 kts | 59° |
| 2026-05-05 18:53 | 60.08289 | 165.20778 | 15434 ft | 198 kts | 59° |
| 2026-05-05 18:53 | 60.09121 | 165.22967 | 15398 ft | 198 kts | 59° |
| 2026-05-05 18:54 | 60.09959 | 165.25176 | 15309 ft | 200 kts | 59° |
| 2026-05-05 18:54 | 60.10800 | 165.27387 | 15182 ft | 199 kts | 59° |
| 2026-05-05 18:54 | 60.11634 | 165.29590 | 15057 ft | 198 kts | 59° |
| 2026-05-05 18:54 | 60.12417 | 165.31836 | 14933 ft | 196 kts | 61° |
| 2026-05-05 18:55 | 60.13210 | 165.34065 | 14805 ft | 196 kts | 60° |
| 2026-05-05 18:55 | 60.14007 | 165.36294 | 14680 ft | 197 kts | 60° |
| 2026-05-05 18:55 | 60.14796 | 165.38534 | 14555 ft | 197 kts | 61° |
| 2026-05-05 18:55 | 60.15585 | 165.40778 | 14430 ft | 197 kts | 61° |
| 2026-05-05 18:56 | 60.16373 | 165.43024 | 14306 ft | 197 kts | 61° |
| 2026-05-05 18:56 | 60.17161 | 165.45270 | 14181 ft | 197 kts | 60° |
| 2026-05-05 18:56 | 60.17952 | 165.47522 | 14056 ft | 197 kts | 60° |
| 2026-05-05 18:56 | 60.18741 | 165.49774 | 13931 ft | 197 kts | 60° |
| 2026-05-05 18:57 | 60.19529 | 165.52024 | 13807 ft | 197 kts | 61° |
| 2026-05-05 18:57 | 60.20317 | 165.54275 | 13685 ft | 197 kts | 60° |
| 2026-05-05 18:57 | 60.21109 | 165.56541 | 13559 ft | 198 kts | 60° |
| 2026-05-05 18:57 | 60.21900 | 165.58810 | 13433 ft | 198 kts | 61° |
| 2026-05-05 18:58 | 60.22691 | 165.61078 | 13314 ft | 198 kts | 60° |
| 2026-05-05 18:58 | 60.23481 | 165.63342 | 13186 ft | 198 kts | 61° |
| 2026-05-05 18:58 | 60.24258 | 165.65579 | 13063 ft | 197 kts | 60° |
| 2026-05-05 18:58 | 60.25043 | 165.67840 | 12936 ft | 197 kts | 60° |
| 2026-05-05 18:59 | 60.25828 | 165.70099 | 12812 ft | 197 kts | 60° |
| 2026-05-05 18:59 | 60.26610 | 165.72356 | 12686 ft | 196 kts | 61° |
| 2026-05-05 18:59 | 60.27392 | 165.74612 | 12561 ft | 196 kts | 61° |
| 2026-05-05 18:59 | 60.28171 | 165.76862 | 12436 ft | 196 kts | 61° |
| 2026-05-05 19:00 | 60.28950 | 165.79115 | 12311 ft | 196 kts | 61° |
| 2026-05-05 19:00 | 60.29728 | 165.81361 | 12186 ft | 195 kts | 61° |
| 2026-05-05 19:00 | 60.30503 | 165.83610 | 12059 ft | 195 kts | 61° |
| 2026-05-05 19:00 | 60.31276 | 165.85854 | 11934 ft | 195 kts | 61° |
| 2026-05-05 19:01 | 60.32048 | 165.88100 | 11809 ft | 195 kts | 61° |
| 2026-05-05 19:01 | 60.32822 | 165.90342 | 11685 ft | 195 kts | 60° |
| 2026-05-05 19:01 | 60.33594 | 165.92583 | 11560 ft | 194 kts | 61° |
| 2026-05-05 19:01 | 60.34362 | 165.94821 | 11437 ft | 194 kts | 61° |
| 2026-05-05 19:02 | 60.35128 | 165.97054 | 11311 ft | 193 kts | 61° |
| 2026-05-05 19:02 | 60.35892 | 165.99282 | 11185 ft | 192 kts | 60° |
| 2026-05-05 19:02 | 60.36830 | 166.01240 | 11049 ft | 199 kts | 38° |
| 2026-05-05 19:02 | 60.38116 | 166.02353 | 10921 ft | 203 kts | 21° |
| 2026-05-05 19:03 | 60.39463 | 166.03210 | 10798 ft | 203 kts | 22° |
| 2026-05-05 19:03 | 60.40798 | 166.04101 | 10673 ft | 202 kts | 22° |
| 2026-05-05 19:03 | 60.42128 | 166.04996 | 10548 ft | 201 kts | 22° |
| 2026-05-05 19:03 | 60.43460 | 166.05888 | 10424 ft | 201 kts | 22° |
| 2026-05-05 19:04 | 60.44789 | 166.06775 | 10300 ft | 201 kts | 22° |
| 2026-05-05 19:04 | 60.46119 | 166.07662 | 10176 ft | 201 kts | 22° |
| 2026-05-05 19:04 | 60.47451 | 166.08552 | 10051 ft | 201 kts | 22° |
| 2026-05-05 19:04 | 60.48772 | 166.09444 | 9924 ft | 200 kts | 22° |
| 2026-05-05 19:05 | 60.50079 | 166.10342 | 9793 ft | 198 kts | 22° |
| 2026-05-05 19:05 | 60.51385 | 166.11210 | 9672 ft | 197 kts | 21° |
| 2026-05-05 19:05 | 60.52688 | 166.12079 | 9547 ft | 197 kts | 22° |
| 2026-05-05 19:05 | 60.53989 | 166.12962 | 9422 ft | 197 kts | 22° |
| 2026-05-05 19:06 | 60.55285 | 166.13837 | 9298 ft | 196 kts | 22° |
| 2026-05-05 19:06 | 60.56582 | 166.14711 | 9172 ft | 196 kts | 22° |
| 2026-05-05 19:06 | 60.57652 | 166.16253 | 9035 ft | 188 kts | 59° |
| 2026-05-05 19:06 | 60.57966 | 166.18672 | 8938 ft | 177 kts | 100° |
| 2026-05-05 19:07 | 60.57422 | 166.20802 | 8777 ft | 173 kts | 138° |
| 2026-05-05 19:07 | 60.56371 | 166.21586 | 8374 ft | 161 kts | 181° |
| 2026-05-05 19:07 | 60.55374 | 166.20658 | 7983 ft | 159 kts | 213° |
| 2026-05-05 19:07 | 60.54478 | 166.19396 | 7568 ft | 155 kts | 209° |
| 2026-05-05 19:08 | 60.53582 | 166.18208 | 7159 ft | 153 kts | 209° |
| 2026-05-05 19:08 | 60.52693 | 166.17020 | 6769 ft | 153 kts | 210° |
| 2026-05-05 19:08 | 60.51807 | 166.15828 | 6365 ft | 152 kts | 210° |
| 2026-05-05 19:08 | 60.50928 | 166.14651 | 5972 ft | 151 kts | 209° |
| 2026-05-05 19:09 | 60.50055 | 166.13478 | 5572 ft | 148 kts | 209° |
| 2026-05-05 19:09 | 60.49228 | 166.12355 | 5163 ft | 140 kts | 209° |
| 2026-05-05 19:09 | 60.48425 | 166.11259 | 4758 ft | 138 kts | 209° |
| 2026-05-05 19:09 | 60.47637 | 166.10173 | 4345 ft | 136 kts | 209° |
| 2026-05-05 19:10 | 60.46857 | 166.09103 | 3947 ft | 135 kts | 209° |
| 2026-05-05 19:10 | 60.46083 | 166.08018 | 3549 ft | 136 kts | 209° |
| 2026-05-05 19:10 | 60.45293 | 166.06981 | 3141 ft | 134 kts | 204° |
| 2026-05-05 19:10 | 60.44470 | 166.06109 | 2742 ft | 133 kts | 198° |
| 2026-05-05 19:11 | 60.43608 | 166.05476 | 2358 ft | 131 kts | 194° |
| 2026-05-05 19:11 | 60.42762 | 166.04884 | 2024 ft | 127 kts | 194° |
| 2026-05-05 19:11 | 60.41951 | 166.04369 | 1673 ft | 118 kts | 189° |
| 2026-05-05 19:11 | 60.41153 | 166.04003 | 1226 ft | 119 kts | 189° |
| 2026-05-05 19:12 | 60.40364 | 166.03685 | 820 ft | 107 kts | 187° |
| 2026-05-05 19:12 | 60.39664 | 166.03310 | 416 ft | 99 kts | 193° |
| 2026-05-05 19:12 | 60.39059 | 166.02885 | 225 ft | 87 kts | 194° |
| 2026-05-05 19:12 | 60.38515 | 166.02536 | 49 ft | 72 kts | 193° |
| 2026-05-05 19:13 | 60.38183 | 166.02323 | 49 ft | 30 kts | 195° |
| 2026-05-05 19:13 | 60.38036 | 166.02227 | 48 ft | 8 kts | 199° |
| 2026-05-05 19:13 | 60.37998 | 166.02302 | 48 ft | 5 kts | 121° |
| 2026-05-05 19:13 | 60.37969 | 166.02388 | 45 ft | 9 kts | 135° |
| 2026-05-05 19:14 | 60.37908 | 166.02367 | 46 ft | 7 kts | 197° |
| 2026-05-05 19:14 | 60.37896 | 166.02424 | 46 ft | 0 kts | 40° |